Time;durP1;ratioP1;P1;durP2;ratioP2;P2;SDS_P1;SDS_P2;PMS_P1;PMS_P2;Temp;Humidity;BMP_temperature;BMP_pressure;BME280_temperature;BME280_humidity;BME280_pressure;Samples;Min_cycle;Max_cycle;Signal;HPM_P1;HPM_P2
2023/04/24 00:01:50;;;;;;;0.00;0.00;;;;;;;;;;4976383;28;20038;-88
2023/04/24 00:04:16;;;;;;;0.00;0.00;;;;;;;;;;4992417;28;20398;-88
2023/04/24 00:06:43;;;;;;;0.00;0.00;;;;;;;;;;4992191;28;20050;-88
2023/04/24 00:09:09;;;;;;;0.00;0.00;;;;;;;;;;4992392;28;20043;-88
2023/04/24 00:11:36;;;;;;;0.00;0.00;;;;;;;;;;4992069;28;20046;-88
2023/04/24 00:14:02;;;;;;;0.00;0.00;;;;;;;;;;4992149;28;20383;-88
2023/04/24 00:16:28;;;;;;;0.00;0.00;;;;;;;;;;4991917;28;20402;-87
2023/04/24 00:18:55;;;;;;;0.00;0.00;;;;;;;;;;4992172;28;20192;-89
2023/04/24 00:21:21;;;;;;;0.00;0.00;;;;;;;;;;4992041;28;20573;-88
2023/04/24 00:23:47;;;;;;;0.00;0.00;;;;;;;;;;4992181;28;20042;-88
2023/04/24 00:26:14;;;;;;;0.00;0.00;;;;;;;;;;4992143;28;20042;-87
2023/04/24 00:28:40;;;;;;;0.00;0.00;;;;;;;;;;4992218;28;20042;-88
2023/04/24 00:31:06;;;;;;;0.00;0.00;;;;;;;;;;4991882;28;20449;-87
2023/04/24 00:33:32;;;;;;;0.00;0.00;;;;;;;;;;4992188;28;20121;-88
2023/04/24 00:35:58;;;;;;;0.00;0.00;;;;;;;;;;4975962;28;20145;-87
2023/04/24 00:38:25;;;;;;;0.00;0.00;;;;;;;;;;4992508;28;20039;-88
2023/04/24 00:40:51;;;;;;;0.00;0.00;;;;;;;;;;4992828;28;20141;-88
2023/04/24 00:43:17;;;;;;;0.00;0.00;;;;;;;;;;4976383;28;20061;-86
2023/04/24 00:45:44;;;;;;;0.00;0.00;;;;;;;;;;4976078;28;20236;-88
2023/04/24 00:48:10;;;;;;;0.00;0.00;;;;;;;;;;4991722;28;20049;-87
2023/04/24 00:50:36;;;;;;;0.00;0.00;;;;;;;;;;4991875;28;20513;-88
2023/04/24 00:53:04;;;;;;;0.00;0.00;;;;;;;;;;4975440;28;20092;-87
2023/04/24 00:55:30;;;;;;;0.00;0.00;;;;;;;;;;4991886;28;20043;-88
2023/04/24 00:57:56;;;;;;;0.00;0.00;;;;;;;;;;4975400;28;20030;-88
2023/04/24 01:00:22;;;;;;;0.00;0.00;;;;;;;;;;4991950;28;20389;-88
2023/04/24 01:02:49;;;;;;;0.00;0.00;;;;;;;;;;4975333;28;20038;-87
2023/04/24 01:05:17;;;;;;;0.00;0.00;;;;;;;;;;4991702;28;20058;-86
2023/04/24 01:07:45;;;;;;;0.00;0.00;;;;;;;;;;4975555;28;20053;-87
2023/04/24 01:10:14;;;;;;;0.00;0.00;;;;;;;;;;4975955;28;20046;-92
2023/04/24 01:12:40;;;;;;;0.00;0.00;;;;;;;;;;4975288;28;20048;-88
2023/04/24 01:15:07;;;;;;;0.00;0.00;;;;;;;;;;4991597;28;20508;-88
2023/04/24 01:17:33;;;;;;;0.00;0.00;;;;;;;;;;4991379;28;20142;-87
2023/04/24 01:20:00;;;;;;;0.00;0.00;;;;;;;;;;4991720;28;20042;-88
2023/04/24 01:22:26;;;;;;;0.00;0.00;;;;;;;;;;4991463;28;20077;-88
2023/04/24 01:24:53;;;;;;;0.00;0.00;;;;;;;;;;4991527;28;20042;-88
2023/04/24 01:27:20;;;;;;;0.00;0.00;;;;;;;;;;4991476;28;20129;-88
2023/04/24 01:29:47;;;;;;;0.00;0.00;;;;;;;;;;4991629;28;20057;-88
2023/04/24 01:32:13;;;;;;;0.00;0.00;;;;;;;;;;4978621;28;20165;-89
2023/04/24 01:34:39;;;;;;;0.00;0.00;;;;;;;;;;4995247;28;20049;-88
2023/04/24 01:37:05;;;;;;;0.00;0.00;;;;;;;;;;4978754;28;20042;-88
2023/04/24 01:39:33;;;;;;;0.00;0.00;;;;;;;;;;4994995;28;20034;-92
2023/04/24 01:41:59;;;;;;;0.00;0.00;;;;;;;;;;4980150;28;20038;-89
2023/04/24 01:44:26;;;;;;;0.00;0.00;;;;;;;;;;4978681;28;20045;-87
2023/04/24 01:46:53;;;;;;;0.00;0.00;;;;;;;;;;4994742;28;20132;-88
2023/04/24 01:49:19;;;;;;;0.00;0.00;;;;;;;;;;4978934;28;20134;-87
2023/04/24 01:51:46;;;;;;;0.00;0.00;;;;;;;;;;4994669;28;20125;-88
2023/04/24 01:54:12;;;;;;;0.00;0.00;;;;;;;;;;4978215;28;20441;-88
2023/04/24 01:56:43;;;;;;;0.00;0.00;;;;;;;;;;4994604;28;20224;-88
2023/04/24 01:59:10;;;;;;;0.00;0.00;;;;;;;;;;4994646;28;20097;-88
2023/04/24 02:01:36;;;;;;;0.00;0.00;;;;;;;;;;4994509;28;20049;-89
2023/04/24 02:04:02;;;;;;;0.00;0.00;;;;;;;;;;4994188;28;20055;-89
2023/04/24 02:06:28;;;;;;;0.00;0.00;;;;;;;;;;4994682;28;20053;-89
2023/04/24 02:08:54;;;;;;;0.00;0.00;;;;;;;;;;4994119;28;20039;-88
2023/04/24 02:11:20;;;;;;;0.00;0.00;;;;;;;;;;4994466;28;20035;-89
2023/04/24 02:13:46;;;;;;;0.00;0.00;;;;;;;;;;4994214;28;20555;-88
2023/04/24 02:16:12;;;;;;;0.00;0.00;;;;;;;;;;4994285;28;20038;-89
2023/04/24 02:18:38;;;;;;;0.00;0.00;;;;;;;;;;4978390;28;20042;-89
2023/04/24 02:21:05;;;;;;;0.00;0.00;;;;;;;;;;4994260;28;20045;-89
2023/04/24 02:23:31;;;;;;;0.00;0.00;;;;;;;;;;4977970;28;20057;-89
2023/04/24 02:25:57;;;;;;;0.00;0.00;;;;;;;;;;4978177;28;20065;-88
2023/04/24 02:28:23;;;;;;;0.00;0.00;;;;;;;;;;4977829;28;20410;-90
2023/04/24 02:30:49;;;;;;;0.00;0.00;;;;;;;;;;4994356;28;20077;-89
2023/04/24 02:33:15;;;;;;;0.00;0.00;;;;;;;;;;4993796;28;20053;-88
2023/04/24 02:35:41;;;;;;;0.00;0.00;;;;;;;;;;4977740;28;20043;-88
2023/04/24 02:38:07;;;;;;;0.00;0.00;;;;;;;;;;4993893;28;20045;-88
2023/04/24 02:40:33;;;;;;;0.00;0.00;;;;;;;;;;4993970;28;20438;-88
2023/04/24 02:42:59;;;;;;;0.00;0.00;;;;;;;;;;4976585;28;20076;-88
2023/04/24 02:45:25;;;;;;;0.00;0.00;;;;;;;;;;4994205;28;20046;-89
2023/04/24 02:47:51;;;;;;;0.00;0.00;;;;;;;;;;4993869;28;20046;-90
2023/04/24 02:50:17;;;;;;;0.00;0.00;;;;;;;;;;4993730;28;20046;-89
2023/04/24 02:52:43;;;;;;;0.00;0.00;;;;;;;;;;4993583;28;20069;-89
2023/04/24 02:55:09;;;;;;;0.00;0.00;;;;;;;;;;4993731;28;20045;-89
2023/04/24 02:57:35;;;;;;;0.00;0.00;;;;;;;;;;4993606;28;20034;-88
2023/04/24 03:00:01;;;;;;;0.00;0.00;;;;;;;;;;4977597;28;20046;-88
2023/04/24 03:02:27;;;;;;;0.00;0.00;;;;;;;;;;4993304;28;20085;-88
2023/04/24 03:04:53;;;;;;;0.00;0.00;;;;;;;;;;4993090;28;20409;-88
2023/04/24 03:07:20;;;;;;;0.00;0.00;;;;;;;;;;4993751;28;20046;-88
2023/04/24 03:09:46;;;;;;;0.00;0.00;;;;;;;;;;4993185;28;20054;-89
2023/04/24 03:12:12;;;;;;;0.00;0.00;;;;;;;;;;4977141;28;20042;-88
2023/04/24 03:14:38;;;;;;;0.00;0.00;;;;;;;;;;4992921;28;20104;-90
2023/04/24 03:17:04;;;;;;;0.00;0.00;;;;;;;;;;4993224;28;20129;-88
2023/04/24 03:19:30;;;;;;;0.00;0.00;;;;;;;;;;4992785;28;20042;-88
2023/04/24 03:21:56;;;;;;;0.00;0.00;;;;;;;;;;4993208;28;20073;-89
2023/04/24 03:24:22;;;;;;;0.00;0.00;;;;;;;;;;4992712;28;20394;-89
2023/04/24 03:26:48;;;;;;;0.00;0.00;;;;;;;;;;4976985;28;20042;-90
2023/04/24 03:29:14;;;;;;;0.00;0.00;;;;;;;;;;4992947;28;20401;-89
2023/04/24 03:31:40;;;;;;;0.00;0.00;;;;;;;;;;4976832;28;20043;-89
2023/04/24 03:34:06;;;;;;;0.00;0.00;;;;;;;;;;4976446;28;20049;-90
2023/04/24 03:36:32;;;;;;;0.00;0.00;;;;;;;;;;4976496;28;20043;-89
2023/04/24 03:38:58;;;;;;;0.00;0.00;;;;;;;;;;4992730;28;20062;-89
2023/04/24 03:41:24;;;;;;;0.00;0.00;;;;;;;;;;4992755;28;20038;-89
2023/04/24 03:43:50;;;;;;;0.00;0.00;;;;;;;;;;4992239;28;20042;-90
2023/04/24 03:46:16;;;;;;;0.00;0.00;;;;;;;;;;4976466;28;20053;-88
2023/04/24 03:48:42;;;;;;;0.00;0.00;;;;;;;;;;4976183;28;20038;-89
2023/04/24 03:51:08;;;;;;;0.00;0.00;;;;;;;;;;4992689;28;20042;-89
2023/04/24 03:53:34;;;;;;;0.00;0.00;;;;;;;;;;4992131;28;20068;-88
2023/04/24 03:56:00;;;;;;;0.00;0.00;;;;;;;;;;4992453;28;20046;-89
2023/04/24 03:58:26;;;;;;;0.00;0.00;;;;;;;;;;4992400;28;20049;-89
2023/04/24 04:00:52;;;;;;;0.00;0.00;;;;;;;;;;4992535;28;20049;-89
2023/04/24 04:03:18;;;;;;;0.00;0.00;;;;;;;;;;4976022;28;20054;-89
2023/04/24 04:05:44;;;;;;;0.00;0.00;;;;;;;;;;4992350;28;20116;-88
2023/04/24 04:08:10;;;;;;;0.00;0.00;;;;;;;;;;4992275;28;20484;-88
2023/04/24 04:10:36;;;;;;;0.00;0.00;;;;;;;;;;4991931;28;20099;-88
2023/04/24 04:13:02;;;;;;;0.00;0.00;;;;;;;;;;4976223;28;20042;-94
2023/04/24 04:15:28;;;;;;;0.00;0.00;;;;;;;;;;4993002;28;20045;-87
2023/04/24 04:17:54;;;;;;;0.00;0.00;;;;;;;;;;4976481;28;20159;-88
2023/04/24 04:20:20;;;;;;;0.00;0.00;;;;;;;;;;4975621;28;20042;-88
2023/04/24 04:22:46;;;;;;;0.00;0.00;;;;;;;;;;4976033;28;20085;-88
2023/04/24 04:25:13;;;;;;;0.00;0.00;;;;;;;;;;4991887;28;20048;-89
2023/04/24 04:27:41;;;;;;;0.00;0.00;;;;;;;;;;4991911;28;20181;-88
2023/04/24 04:30:08;;;;;;;0.00;0.00;;;;;;;;;;4992006;28;20108;-88
2023/04/24 04:32:37;;;;;;;0.00;0.00;;;;;;;;;;4991864;28;20121;-89
2023/04/24 04:35:03;;;;;;;0.00;0.00;;;;;;;;;;4971218;28;20387;-88
2023/04/24 04:37:31;;;;;;;0.00;0.00;;;;;;;;;;4992112;28;20145;-91
2023/04/24 04:40:00;;;;;;;0.00;0.00;;;;;;;;;;4975418;28;20497;-87
2023/04/24 04:42:28;;;;;;;0.00;0.00;;;;;;;;;;4991691;28;20050;-85
2023/04/24 04:44:54;;;;;;;0.00;0.00;;;;;;;;;;4976161;28;20073;-90
2023/04/24 04:47:24;;;;;;;0.00;0.00;;;;;;;;;;4976110;28;20043;-87
2023/04/24 04:49:51;;;;;;;0.00;0.00;;;;;;;;;;4975144;28;20130;-90
2023/04/24 04:52:18;;;;;;;0.00;0.00;;;;;;;;;;4975592;28;20050;-88
2023/04/24 04:54:44;;;;;;;0.00;0.00;;;;;;;;;;4991780;28;20052;-88
2023/04/24 04:57:10;;;;;;;0.00;0.00;;;;;;;;;;4976259;28;20125;-89
2023/04/24 04:59:37;;;;;;;0.00;0.00;;;;;;;;;;4991791;28;20034;-88
2023/04/24 05:02:03;;;;;;;0.00;0.00;;;;;;;;;;4976308;28;20518;-89
2023/04/24 05:04:29;;;;;;;0.00;0.00;;;;;;;;;;4975099;28;20054;-88
2023/04/24 05:06:56;;;;;;;0.00;0.00;;;;;;;;;;4994658;28;20038;-88
2023/04/24 05:09:22;;;;;;;0.00;0.00;;;;;;;;;;4979521;28;20121;-89
2023/04/24 05:11:48;;;;;;;0.00;0.00;;;;;;;;;;4995513;28;20144;-88
2023/04/24 05:14:14;;;;;;;0.00;0.00;;;;;;;;;;4979350;28;20038;-88
2023/04/24 05:16:40;;;;;;;0.00;0.00;;;;;;;;;;4979095;28;20042;-87
2023/04/24 05:19:06;;;;;;;0.00;0.00;;;;;;;;;;4995447;28;20101;-90
2023/04/24 05:21:32;;;;;;;0.00;0.00;;;;;;;;;;4996698;28;20505;-88
2023/04/24 05:23:58;;;;;;;0.00;0.00;;;;;;;;;;4995381;28;20038;-89
2023/04/24 05:26:24;;;;;;;0.00;0.00;;;;;;;;;;4978964;28;20057;-89
2023/04/24 05:28:51;;;;;;;0.00;0.00;;;;;;;;;;4995281;28;20049;-87
2023/04/24 05:31:17;;;;;;;0.00;0.00;;;;;;;;;;4979036;28;20526;-88
2023/04/24 05:33:43;;;;;;;0.00;0.00;;;;;;;;;;4995183;28;20129;-89
2023/04/24 05:36:10;;;;;;;0.00;0.00;;;;;;;;;;4978676;28;20038;-88
2023/04/24 05:38:35;;;;;;;0.00;0.00;;;;;;;;;;4978797;28;20050;-88
2023/04/24 05:41:02;;;;;;;0.00;0.00;;;;;;;;;;4979034;28;20039;-89
2023/04/24 05:43:27;;;;;;;0.00;0.00;;;;;;;;;;4995087;28;20381;-88
2023/04/24 05:45:53;;;;;;;0.00;0.00;;;;;;;;;;4994847;28;20050;-88
2023/04/24 05:48:20;;;;;;;0.00;0.00;;;;;;;;;;4994846;28;20116;-88
2023/04/24 05:50:47;;;;;;;0.00;0.00;;;;;;;;;;4978410;28;20096;-89
2023/04/24 05:53:13;;;;;;;0.00;0.00;;;;;;;;;;4978830;28;20061;-89
2023/04/24 05:55:39;;;;;;;0.00;0.00;;;;;;;;;;4995538;28;20042;-88
2023/04/24 05:58:06;;;;;;;0.00;0.00;;;;;;;;;;4979908;28;20041;-88
2023/04/24 06:00:32;;;;;;;0.00;0.00;;;;;;;;;;4995444;28;20042;-88
2023/04/24 06:02:59;;;;;;;0.00;0.00;;;;;;;;;;4996474;28;20073;-89
2023/04/24 06:05:25;;;;;;;0.00;0.00;;;;;;;;;;4994524;28;20093;-88
2023/04/24 06:07:51;;;;;;;0.00;0.00;;;;;;;;;;4994675;28;20042;-87
2023/04/24 06:10:18;;;;;;;0.00;0.00;;;;;;;;;;4978167;28;20125;-88
2023/04/24 06:12:45;;;;;;;0.00;0.00;;;;;;;;;;4978460;28;20049;-88
2023/04/24 06:15:11;;;;;;;0.00;0.00;;;;;;;;;;4978115;28;20126;-88
2023/04/24 06:17:37;;;;;;;0.00;0.00;;;;;;;;;;4997364;28;20149;-92
2023/04/24 06:20:05;;;;;;;0.00;0.00;;;;;;;;;;4995030;28;20495;-89
2023/04/24 06:22:31;;;;;;;0.00;0.00;;;;;;;;;;4978450;28;20125;-86
2023/04/24 06:24:57;;;;;;;0.00;0.00;;;;;;;;;;4994441;28;20053;-87
2023/04/24 06:27:23;;;;;;;0.00;0.00;;;;;;;;;;4994543;28;20145;-88
2023/04/24 06:29:54;;;;;;;0.00;0.00;;;;;;;;;;4993986;28;20068;-87
2023/04/24 06:32:20;;;;;;;0.00;0.00;;;;;;;;;;4977904;28;20046;-87
2023/04/24 06:34:46;;;;;;;0.00;0.00;;;;;;;;;;4993960;28;20053;-87
2023/04/24 06:37:12;;;;;;;0.00;0.00;;;;;;;;;;4977735;28;20121;-87
2023/04/24 06:39:38;;;;;;;0.00;0.00;;;;;;;;;;4978074;28;20072;-87
2023/04/24 06:42:04;;;;;;;0.00;0.00;;;;;;;;;;4977542;28;20150;-86
2023/04/24 06:44:30;;;;;;;0.00;0.00;;;;;;;;;;4977707;28;20434;-86
2023/04/24 06:46:57;;;;;;;0.00;0.00;;;;;;;;;;4977257;28;20038;-87
2023/04/24 06:49:23;;;;;;;0.00;0.00;;;;;;;;;;4977446;28;20038;-86
2023/04/24 06:51:49;;;;;;;0.00;0.00;;;;;;;;;;4977162;28;20133;-87
2023/04/24 06:54:15;;;;;;;0.00;0.00;;;;;;;;;;4993555;28;20035;-87
2023/04/24 06:56:41;;;;;;;0.00;0.00;;;;;;;;;;4977528;28;20054;-88
2023/04/24 06:59:07;;;;;;;0.00;0.00;;;;;;;;;;4993678;28;20088;-86
2023/04/24 07:01:33;;;;;;;0.00;0.00;;;;;;;;;;4993428;28;20038;-87
2023/04/24 07:03:59;;;;;;;0.00;0.00;;;;;;;;;;4993257;28;20054;-85
2023/04/24 07:06:25;;;;;;;0.00;0.00;;;;;;;;;;4993253;28;20402;-85
2023/04/24 07:08:51;;;;;;;0.00;0.00;;;;;;;;;;4993298;28;20046;-87
2023/04/24 07:11:17;;;;;;;0.00;0.00;;;;;;;;;;4993191;28;20046;-86
2023/04/24 07:13:44;;;;;;;0.00;0.00;;;;;;;;;;4993227;28;20045;-87
2023/04/24 07:16:10;;;;;;;0.00;0.00;;;;;;;;;;4993014;28;20046;-87
2023/04/24 07:18:36;;;;;;;0.00;0.00;;;;;;;;;;4976978;28;20039;-87
2023/04/24 07:21:02;;;;;;;0.00;0.00;;;;;;;;;;4992977;28;20339;-87
2023/04/24 07:23:28;;;;;;;0.00;0.00;;;;;;;;;;4993069;28;20371;-86
2023/04/24 07:25:54;;;;;;;0.00;0.00;;;;;;;;;;4976635;28;20510;-86
2023/04/24 07:28:20;;;;;;;0.00;0.00;;;;;;;;;;4993142;28;20137;-88
2023/04/24 07:30:46;;;;;;;0.00;0.00;;;;;;;;;;4993085;28;20181;-86
2023/04/24 07:33:13;;;;;;;0.00;0.00;;;;;;;;;;4977014;28;20050;-90
2023/04/24 07:35:39;;;;;;;0.00;0.00;;;;;;;;;;4992312;28;20520;-86
2023/04/24 07:38:05;;;;;;;0.00;0.00;;;;;;;;;;4992741;28;20038;-86
2023/04/24 07:40:31;;;;;;;0.00;0.00;;;;;;;;;;4976461;28;20441;-86
2023/04/24 07:42:57;;;;;;;0.00;0.00;;;;;;;;;;4992617;28;20046;-85
2023/04/24 07:45:25;;;;;;;0.00;0.00;;;;;;;;;;4976529;28;20085;-87
2023/04/24 07:47:51;;;;;;;0.00;0.00;;;;;;;;;;4976520;28;20052;-87
2023/04/24 07:50:17;;;;;;;0.00;0.00;;;;;;;;;;4992761;28;20042;-87
2023/04/24 07:52:43;;;;;;;0.00;0.00;;;;;;;;;;4992168;28;20120;-86
2023/04/24 07:55:12;;;;;;;0.00;0.00;;;;;;;;;;4992753;28;20074;-86
2023/04/24 07:57:38;;;;;;;0.00;0.00;;;;;;;;;;4992360;28;20140;-86
2023/04/24 08:00:05;;;;;;;0.00;0.00;;;;;;;;;;4976502;28;20394;-86
2023/04/24 08:02:31;;;;;;;0.00;0.00;;;;;;;;;;4991874;28;20042;-87
2023/04/24 08:04:57;;;;;;;0.00;0.00;;;;;;;;;;4991996;28;20066;-86
2023/04/24 08:07:24;;;;;;;0.00;0.00;;;;;;;;;;4991945;28;20042;-87
2023/04/24 08:09:50;;;;;;;0.30;0.20;;;;;;;;;;4991998;28;20046;-86
2023/04/24 08:12:16;;;;;;;0.00;0.00;;;;;;;;;;4992101;28;20389;-86
2023/04/24 08:14:42;;;;;;;0.00;0.00;;;;;;;;;;4991963;28;20132;-86
2023/04/24 08:17:08;;;;;;;0.00;0.00;;;;;;;;;;4991764;28;20038;-87
2023/04/24 08:19:34;;;;;;;0.00;0.00;;;;;;;;;;4992073;28;20049;-87
2023/04/24 08:22:00;;;;;;;0.00;0.00;;;;;;;;;;4992008;28;20053;-87
2023/04/24 08:24:26;;;;;;;0.00;0.00;;;;;;;;;;4991885;28;20034;-86
2023/04/24 08:26:53;;;;;;;0.00;0.00;;;;;;;;;;4991879;28;20061;-87
2023/04/24 08:29:19;;;;;;;0.00;0.00;;;;;;;;;;4991774;28;20482;-87
2023/04/24 08:31:45;;;;;;;0.00;0.00;;;;;;;;;;4994637;28;20121;-86
2023/04/24 08:34:11;;;;;;;0.00;0.00;;;;;;;;;;4992911;28;20077;-89
2023/04/24 08:36:40;;;;;;;0.00;0.00;;;;;;;;;;4991671;28;20125;-89
2023/04/24 08:39:06;;;;;;;0.00;0.00;;;;;;;;;;4976074;28;20093;-86
2023/04/24 08:41:34;;;;;;;0.00;0.00;;;;;;;;;;4990914;28;20049;-85
2023/04/24 08:44:00;;;;;;;0.00;0.00;;;;;;;;;;4991609;28;20038;-85
2023/04/24 08:46:26;;;;;;;0.00;0.00;;;;;;;;;;4991380;28;20501;-86
2023/04/24 08:48:53;;;;;;;0.00;0.00;;;;;;;;;;4991783;28;20038;-87
2023/04/24 08:51:20;;;;;;;0.00;0.00;;;;;;;;;;4975201;28;20450;-85
2023/04/24 08:53:46;;;;;;;0.00;0.00;;;;;;;;;;4991547;28;20038;-85
2023/04/24 08:56:13;;;;;;;0.00;0.00;;;;;;;;;;4991522;28;20084;-85
2023/04/24 08:58:39;;;;;;;0.00;0.00;;;;;;;;;;4991536;28;20038;-86
2023/04/24 09:01:05;;;;;;;0.00;0.00;;;;;;;;;;4975607;28;20042;-86
2023/04/24 09:03:31;;;;;;;0.00;0.00;;;;;;;;;;4975210;28;20449;-86
2023/04/24 09:05:58;;;;;;;0.00;0.00;;;;;;;;;;4991778;28;20410;-86
2023/04/24 09:08:25;;;;;;;0.00;0.00;;;;;;;;;;4975519;28;20042;-86
2023/04/24 09:10:51;;;;;;;0.00;0.00;;;;;;;;;;4975566;28;20042;-85
2023/04/24 09:13:19;;;;;;;0.00;0.00;;;;;;;;;;4991298;28;20399;-85
2023/04/24 09:15:45;;;;;;;0.00;0.00;;;;;;;;;;4991269;28;20042;-84
2023/04/24 09:18:11;;;;;;;0.00;0.00;;;;;;;;;;4991185;28;20114;-84
2023/04/24 09:20:58;;;;;;;0.00;0.00;;;;;;;;;;4992790;28;20049;-86
2023/04/24 09:23:26;;;;;;;0.00;0.00;;;;;;;;;;4991508;28;20046;-86
2023/04/24 09:25:55;;;;;;;0.00;0.00;;;;;;;;;;4991367;28;20068;-85
2023/04/24 09:28:25;;;;;;;0.00;0.00;;;;;;;;;;4991358;28;20129;-85
2023/04/24 09:31:02;;;;;;;0.20;0.00;;;;;;;;;;4975083;28;20042;-85
2023/04/24 09:33:28;;;;;;;0.00;0.00;;;;;;;;;;4974814;28;20050;-84
2023/04/24 09:35:54;;;;;;;0.00;0.00;;;;;;;;;;4991229;28;20225;-84
2023/04/24 09:38:30;;;;;;;0.00;0.00;;;;;;;;;;4991007;28;20038;-84
2023/04/24 09:40:59;;;;;;;0.00;0.00;;;;;;;;;;4991289;28;20081;-84
2023/04/24 09:43:27;;;;;;;0.00;0.00;;;;;;;;;;4991136;28;20038;-85
2023/04/24 09:45:56;;;;;;;0.00;0.00;;;;;;;;;;4991438;28;20386;-85
2023/04/24 09:48:30;;;;;;;0.00;0.00;;;;;;;;;;4990955;28;20038;-85
2023/04/24 09:50:56;;;;;;;0.00;0.00;;;;;;;;;;4991235;28;20057;-85
2023/04/24 09:53:26;;;;;;;0.00;0.00;;;;;;;;;;4978207;28;20046;-85
2023/04/24 09:55:52;;;;;;;0.00;0.00;;;;;;;;;;4994538;28;20038;-84
2023/04/24 09:58:19;;;;;;;0.00;0.00;;;;;;;;;;4994599;28;20508;-85
2023/04/24 10:00:46;;;;;;;0.00;0.00;;;;;;;;;;4994536;28;20544;-85
2023/04/24 10:03:12;;;;;;;0.00;0.00;;;;;;;;;;4994104;28;20101;-85
2023/04/24 10:05:43;;;;;;;0.00;0.00;;;;;;;;;;4994390;28;20053;-86
2023/04/24 10:08:10;;;;;;;0.05;0.00;;;;;;;;;;4994310;28;20050;-85
2023/04/24 10:10:43;;;;;;;0.00;0.00;;;;;;;;;;4994423;28;20121;-85
2023/04/24 10:13:12;;;;;;;0.00;0.00;;;;;;;;;;4994218;28;20177;-85
2023/04/24 10:15:38;;;;;;;0.00;0.00;;;;;;;;;;4994113;28;20054;-85
2023/04/24 10:18:06;;;;;;;0.00;0.00;;;;;;;;;;4994174;28;20540;-86
2023/04/24 10:20:32;;;;;;;0.00;0.00;;;;;;;;;;4978011;28;20042;-84
2023/04/24 10:22:59;;;;;;;0.00;0.00;;;;;;;;;;4993932;28;20101;-84
2023/04/24 10:25:26;;;;;;;0.32;0.00;;;;;;;;;;4977727;28;20524;-85
2023/04/24 10:27:53;;;;;;;0.00;0.00;;;;;;;;;;4993796;28;20088;-84
2023/04/24 10:30:20;;;;;;;0.00;0.00;;;;;;;;;;4995215;28;20046;-85
2023/04/24 10:32:46;;;;;;;0.00;0.00;;;;;;;;;;4993873;28;20249;-86
2023/04/24 10:35:13;;;;;;;0.00;0.00;;;;;;;;;;4977641;28;20042;-86
2023/04/24 10:37:41;;;;;;;0.00;0.00;;;;;;;;;;4993971;28;20081;-85
2023/04/24 10:40:08;;;;;;;0.00;0.00;;;;;;;;;;4993727;28;20121;-86
2023/04/24 10:42:35;;;;;;;0.00;0.00;;;;;;;;;;4993534;28;20065;-86
2023/04/24 10:45:16;;;;;;;0.00;0.00;;;;;;;;;;4993808;28;20043;-85
2023/04/24 10:47:43;;;;;;;0.00;0.00;;;;;;;;;;4993581;28;20046;-87
2023/04/24 10:50:12;;;;;;;0.00;0.00;;;;;;;;;;4977514;28;20095;-86
2023/04/24 10:52:45;;;;;;;0.00;0.00;;;;;;;;;;4993343;28;20133;-85
2023/04/24 10:55:16;;;;;;;0.00;0.00;;;;;;;;;;4993518;28;20043;-86
2023/04/24 10:58:01;;;;;;;0.00;0.00;;;;;;;;;;4977199;28;20038;-85
2023/04/24 11:00:27;;;;;;;0.00;0.00;;;;;;;;;;4994099;28;20052;-86
2023/04/24 11:02:53;;;;;;;0.00;0.00;;;;;;;;;;4977593;28;20132;-85
2023/04/24 11:05:20;;;;;;;0.00;0.00;;;;;;;;;;4994328;28;20149;-86
2023/04/24 11:08:05;;;;;;;0.00;0.00;;;;;;;;;;4993955;28;20085;-86
2023/04/24 11:10:31;;;;;;;0.00;0.00;;;;;;;;;;4993218;28;20481;-86
2023/04/24 11:12:57;;;;;;;0.10;0.00;;;;;;;;;;4993184;28;20100;-86
2023/04/24 11:15:23;;;;;;;0.00;0.00;;;;;;;;;;4993151;28;20490;-86
2023/04/24 11:17:49;;;;;;;0.00;0.00;;;;;;;;;;4976842;28;20081;-86
2023/04/24 11:20:17;;;;;;;0.00;0.00;;;;;;;;;;4993174;28;20110;-85
2023/04/24 11:22:43;;;;;;;0.00;0.00;;;;;;;;;;4992762;28;20449;-86
2023/04/24 11:25:11;;;;;;;0.00;0.00;;;;;;;;;;4976654;28;20081;-86
2023/04/24 11:27:41;;;;;;;0.00;0.00;;;;;;;;;;4976969;28;20043;-86
2023/04/24 11:30:08;;;;;;;0.00;0.00;;;;;;;;;;4992876;28;20494;-86
2023/04/24 11:32:35;;;;;;;0.00;0.00;;;;;;;;;;4976631;28;20081;-86
2023/04/24 11:35:02;;;;;;;0.00;0.00;;;;;;;;;;4976625;28;20394;-86
2023/04/24 11:37:29;;;;;;;0.00;0.00;;;;;;;;;;4992704;28;20042;-86
2023/04/24 11:39:55;;;;;;;0.00;0.00;;;;;;;;;;4992463;28;20080;-85
2023/04/24 11:42:23;;;;;;;0.00;0.00;;;;;;;;;;4992513;28;20042;-86
2023/04/24 11:44:50;;;;;;;0.00;0.00;;;;;;;;;;4992449;28;20088;-86
2023/04/24 11:47:16;;;;;;;0.00;0.00;;;;;;;;;;4992349;28;20049;-85
2023/04/24 11:49:42;;;;;;;0.00;0.00;;;;;;;;;;4992232;28;20038;-86
2023/04/24 11:52:08;;;;;;;0.00;0.00;;;;;;;;;;4992700;28;20038;-88
2023/04/24 11:54:34;;;;;;;0.00;0.00;;;;;;;;;;4976299;28;20053;-85
2023/04/24 11:57:04;;;;;;;0.00;0.00;;;;;;;;;;4992549;28;20042;-91
2023/04/24 11:59:30;;;;;;;0.00;0.00;;;;;;;;;;4975511;28;20050;-86
2023/04/24 12:01:56;;;;;;;0.00;0.00;;;;;;;;;;4975923;28;20400;-86
2023/04/24 12:04:22;;;;;;;0.00;0.00;;;;;;;;;;4991298;28;20081;-87
2023/04/24 12:07:01;;;;;;;0.00;0.00;;;;;;;;;;4975239;28;20175;-87
2023/04/24 12:09:27;;;;;;;0.00;0.00;;;;;;;;;;4974923;28;20124;-86
2023/04/24 12:11:56;;;;;;;0.00;0.00;;;;;;;;;;4974971;28;20046;-87
2023/04/24 12:14:22;;;;;;;0.00;0.00;;;;;;;;;;4974647;28;20038;-87
2023/04/24 12:16:49;;;;;;;0.00;0.00;;;;;;;;;;4974148;28;20041;-87
2023/04/24 12:19:20;;;;;;;0.00;0.00;;;;;;;;;;4991438;28;20042;-88
2023/04/24 12:21:58;;;;;;;0.00;0.00;;;;;;;;;;4991310;28;20042;-87
2023/04/24 12:24:24;;;;;;;0.00;0.00;;;;;;;;;;4975068;28;20046;-86
2023/04/24 12:26:50;;;;;;;0.00;0.00;;;;;;;;;;4974944;28;20501;-88
2023/04/24 12:29:23;;;;;;;0.00;0.00;;;;;;;;;;4991314;28;20096;-87
2023/04/24 12:31:50;;;;;;;0.00;0.00;;;;;;;;;;4975488;28;20390;-90
2023/04/24 12:34:20;;;;;;;0.00;0.00;;;;;;;;;;4975317;28;20041;-87
2023/04/24 12:36:46;;;;;;;0.00;0.00;;;;;;;;;;4991023;28;20438;-87
2023/04/24 12:39:19;;;;;;;0.00;0.00;;;;;;;;;;4974690;28;20100;-86
2023/04/24 12:41:56;;;;;;;0.00;0.00;;;;;;;;;;4990823;28;20185;-87
2023/04/24 12:44:36;;;;;;;0.00;0.00;;;;;;;;;;4991002;28;20050;-87
2023/04/24 12:47:03;;;;;;;0.00;0.00;;;;;;;;;;4974988;28;20038;-87
2023/04/24 12:49:30;;;;;;;0.00;0.00;;;;;;;;;;4974614;28;20038;-87
2023/04/24 12:51:56;;;;;;;0.00;0.00;;;;;;;;;;4990907;28;20034;-86
2023/04/24 12:54:22;;;;;;;0.00;0.00;;;;;;;;;;4990577;28;20053;-88
2023/04/24 12:56:48;;;;;;;0.00;0.00;;;;;;;;;;4990743;28;20065;-87
2023/04/24 12:59:14;;;;;;;0.08;0.08;;;;;;;;;;4990795;28;20482;-88
2023/04/24 13:01:41;;;;;;;0.00;0.00;;;;;;;;;;4990767;28;20126;-88
2023/04/24 13:04:07;;;;;;;0.00;0.00;;;;;;;;;;4953412;28;1082580;-85
2023/04/24 13:06:33;;;;;;;0.00;0.00;;;;;;;;;;4991521;28;20049;-89
2023/04/24 13:09:00;;;;;;;0.00;0.00;;;;;;;;;;4991898;28;20129;-89
2023/04/24 13:11:26;;;;;;;0.00;0.00;;;;;;;;;;4991983;28;20524;-88
2023/04/24 13:13:52;;;;;;;0.00;0.00;;;;;;;;;;4991922;28;20132;-88
2023/04/24 13:16:18;;;;;;;0.00;0.00;;;;;;;;;;4975466;28;20124;-88
2023/04/24 13:18:44;;;;;;;0.00;0.00;;;;;;;;;;4991683;28;20490;-90
2023/04/24 13:21:10;;;;;;;0.00;0.00;;;;;;;;;;4991649;28;20048;-89
2023/04/24 13:23:36;;;;;;;0.00;0.00;;;;;;;;;;4991714;28;20049;-89
2023/04/24 13:26:02;;;;;;;0.00;0.00;;;;;;;;;;4991596;28;20042;-91
2023/04/24 13:28:29;;;;;;;0.00;0.00;;;;;;;;;;4979774;28;20042;-89
2023/04/24 13:30:55;;;;;;;0.00;0.00;;;;;;;;;;4995530;28;20148;-90
2023/04/24 13:33:21;;;;;;;0.00;0.00;;;;;;;;;;4995570;28;20042;-90
2023/04/24 13:35:47;;;;;;;0.00;0.00;;;;;;;;;;4994887;28;20046;-89
2023/04/24 13:38:13;;;;;;;0.00;0.00;;;;;;;;;;4995800;28;20093;-90
2023/04/24 13:40:39;;;;;;;0.00;0.00;;;;;;;;;;4979195;28;20042;-90
2023/04/24 13:43:05;;;;;;;0.00;0.00;;;;;;;;;;4995274;28;20042;-89
2023/04/24 13:45:31;;;;;;;0.00;0.00;;;;;;;;;;4978982;28;20483;-90
2023/04/24 13:47:57;;;;;;;0.00;0.00;;;;;;;;;;4995428;28;20043;-89
2023/04/24 13:50:23;;;;;;;0.00;0.00;;;;;;;;;;4995508;28;20716;-89
2023/04/24 13:52:49;;;;;;;0.00;0.00;;;;;;;;;;4978888;28;20046;-91
2023/04/24 13:55:15;;;;;;;0.00;0.00;;;;;;;;;;4979033;28;20061;-89
2023/04/24 13:57:41;;;;;;;0.00;0.00;;;;;;;;;;4979390;28;20038;-88
2023/04/24 14:00:10;;;;;;;0.00;0.00;;;;;;;;;;4995531;28;20099;-90
2023/04/24 14:02:36;;;;;;;0.00;0.00;;;;;;;;;;4979112;28;20038;-91
2023/04/24 14:05:03;;;;;;;0.00;0.00;;;;;;;;;;4978741;28;20525;-89
2023/04/24 14:07:30;;;;;;;0.00;0.00;;;;;;;;;;4995227;28;20482;-89
2023/04/24 14:09:56;;;;;;;0.00;0.00;;;;;;;;;;4978752;28;20129;-89
2023/04/24 14:12:22;;;;;;;0.00;0.00;;;;;;;;;;4979034;28;20074;-89
2023/04/24 14:14:48;;;;;;;0.00;0.00;;;;;;;;;;4978465;28;20051;-89
2023/04/24 14:17:14;;;;;;;0.00;0.00;;;;;;;;;;4978931;28;20173;-89
2023/04/24 14:19:40;;;;;;;0.00;0.00;;;;;;;;;;4978305;28;20117;-89
2023/04/24 14:22:06;;;;;;;0.00;0.00;;;;;;;;;;4994453;28;20073;-90
2023/04/24 14:24:32;;;;;;;0.00;0.00;;;;;;;;;;4994416;28;20042;-90
2023/04/24 14:26:58;;;;;;;0.00;0.00;;;;;;;;;;4978728;28;20072;-88
2023/04/24 14:29:25;;;;;;;0.00;0.00;;;;;;;;;;4994707;28;20367;-88
2023/04/24 14:31:51;;;;;;;0.00;0.00;;;;;;;;;;4979589;28;20104;-90
2023/04/24 14:34:17;;;;;;;0.00;0.00;;;;;;;;;;4978073;28;20050;-88
2023/04/24 14:36:44;;;;;;;0.00;0.00;;;;;;;;;;4993928;28;20061;-88
2023/04/24 14:39:10;;;;;;;0.00;0.00;;;;;;;;;;4977017;28;20478;-89
2023/04/24 14:41:37;;;;;;;0.00;0.00;;;;;;;;;;4977731;28;20085;-90